Time;durP1;ratioP1;P1;durP2;ratioP2;P2;SDS_P1;SDS_P2;PMS_P1;PMS_P2;Temp;Humidity;BMP_temperature;BMP_pressure;BME280_temperature;BME280_humidity;BME280_pressure;Samples;Min_cycle;Max_cycle;Signal;HPM_P1;HPM_P2
2021/07/01 00:00:14;;;;;;;1.35;1.20;;;14.50;89.80;;;;;;5074365;28;20041;-79
2021/07/01 00:02:40;;;;;;;2.60;1.50;;;14.40;90.10;;;;;;5056912;28;20047;-78
2021/07/01 00:05:08;;;;;;;3.08;1.60;;;14.40;89.70;;;;;;5074339;28;20045;-77
2021/07/01 00:07:34;;;;;;;1.67;1.20;;;14.50;89.80;;;;;;5056026;28;20405;-78
2021/07/01 00:09:59;;;;;;;3.13;1.77;;;14.50;89.80;;;;;;5055705;28;20127;-79
2021/07/01 00:12:25;;;;;;;2.15;1.30;;;14.40;89.70;;;;;;5022898;28;20109;-77
2021/07/01 00:14:50;;;;;;;1.52;1.05;;;14.40;89.80;;;;;;5055628;28;20204;-77
2021/07/01 00:17:16;;;;;;;2.58;1.25;;;14.50;89.80;;;;;;5055632;28;20055;-77
2021/07/01 00:19:42;;;;;;;2.03;1.00;;;14.50;89.80;;;;;;5073996;28;20040;-77
2021/07/01 00:22:07;;;;;;;1.85;1.27;;;14.50;89.80;;;;;;5056170;28;20040;-76
2021/07/01 00:24:33;;;;;;;1.90;1.30;;;14.50;89.80;;;;;;5055932;28;20048;-77
2021/07/01 00:26:58;;;;;;;1.88;1.10;;;14.50;89.80;;;;;;5022533;28;20029;-77
2021/07/01 00:29:24;;;;;;;1.73;1.30;;;14.50;89.80;;;;;;5039118;28;20060;-77
2021/07/01 00:31:50;;;;;;;1.75;0.98;;;14.50;89.80;;;;;;5073465;28;20040;-77
2021/07/01 00:34:15;;;;;;;1.63;1.10;;;14.50;89.90;;;;;;5073604;28;20033;-77
2021/07/01 00:36:41;;;;;;;2.15;1.00;;;14.50;89.90;;;;;;5055453;28;20044;-77
2021/07/01 00:39:06;;;;;;;1.90;1.20;;;14.50;89.90;;;;;;5038828;28;20040;-77
2021/07/01 00:41:33;;;;;;;0.80;0.80;;;14.50;89.90;;;;;;5073994;28;20129;-77
2021/07/01 00:44:01;;;;;;;1.23;0.82;;;14.50;89.90;;;;;;5072155;28;20029;-77
2021/07/01 00:46:26;;;;;;;1.38;1.00;;;14.50;89.90;;;;;;5056200;28;20040;-77
2021/07/01 00:48:52;;;;;;;1.80;1.13;;;14.50;90.00;;;;;;5055135;28;20102;-77
2021/07/01 00:51:17;;;;;;;2.40;1.10;;;14.50;89.90;;;;;;5038813;28;20506;-78
2021/07/01 00:53:43;;;;;;;1.80;1.05;;;14.50;89.90;;;;;;5054037;28;20135;-77
2021/07/01 00:56:10;;;;;;;1.05;0.95;;;14.50;89.90;;;;;;5038703;28;20063;-78
2021/07/01 00:58:37;;;;;;;2.17;1.30;;;14.50;89.90;;;;;;5038469;28;20086;-77
2021/07/01 01:01:04;;;;;;;2.95;1.38;;;14.50;89.90;;;;;;5073424;28;20037;-77
2021/07/01 01:03:32;;;;;;;1.60;1.10;;;14.50;90.00;;;;;;5071685;28;20082;-77
2021/07/01 01:05:57;;;;;;;2.15;1.33;;;14.50;90.00;;;;;;5039000;28;20093;-78
2021/07/01 01:08:23;;;;;;;2.15;1.00;;;14.50;90.30;;;;;;5072997;28;20044;-77
2021/07/01 01:10:50;;;;;;;1.60;1.15;;;14.50;90.00;;;;;;5038523;28;20032;-77
2021/07/01 01:13:24;;;;;;;2.15;1.30;;;14.50;90.00;;;;;;5073106;28;20040;-77
2021/07/01 01:15:54;;;;;;;1.73;1.27;;;14.50;90.00;;;;;;5056503;28;20063;-77
2021/07/01 01:18:20;;;;;;;2.00;1.00;;;14.50;90.00;;;;;;5071288;28;20037;-77
2021/07/01 01:20:48;;;;;;;1.98;1.27;;;14.50;90.00;;;;;;5055050;28;20036;-77
2021/07/01 01:23:14;;;;;;;1.35;0.95;;;14.50;90.00;;;;;;5073262;28;20041;-77
2021/07/01 01:25:41;;;;;;;3.13;1.40;;;14.50;90.00;;;;;;5072997;28;20036;-77
2021/07/01 01:28:06;;;;;;;1.88;1.40;;;14.50;90.00;;;;;;5054938;28;20048;-77
2021/07/01 01:30:32;;;;;;;2.42;1.20;;;14.50;90.00;;;;;;5038917;28;20090;-77
2021/07/01 01:32:58;;;;;;;1.90;0.95;;;14.50;90.00;;;;;;5038142;28;20063;-77
2021/07/01 01:35:24;;;;;;;2.88;1.00;;;14.50;90.00;;;;;;5054653;28;20048;-77
2021/07/01 01:37:49;;;;;;;1.42;1.00;;;14.50;90.00;;;;;;5037952;28;20403;-77
2021/07/01 01:40:15;;;;;;;1.58;0.80;;;14.50;90.00;;;;;;5072654;28;20047;-77
2021/07/01 01:42:41;;;;;;;1.63;1.02;;;14.40;90.00;;;;;;5054653;28;20040;-76
2021/07/01 01:45:07;;;;;;;2.75;1.10;;;14.40;90.00;;;;;;5072646;28;20455;-77
2021/07/01 01:47:33;;;;;;;1.55;1.00;;;14.40;90.10;;;;;;5072887;28;20064;-76
2021/07/01 01:49:58;;;;;;;2.05;1.00;;;14.40;90.10;;;;;;5038095;28;20419;-77
2021/07/01 01:52:24;;;;;;;1.83;1.00;;;14.40;90.10;;;;;;5054896;28;20047;-77
2021/07/01 01:54:49;;;;;;;1.67;1.02;;;14.40;90.30;;;;;;5037816;28;20445;-78
2021/07/01 01:57:15;;;;;;;1.55;1.00;;;14.40;90.10;;;;;;5037737;28;20048;-77
2021/07/01 01:59:41;;;;;;;1.40;0.98;;;14.40;90.10;;;;;;5072111;28;20036;-77
2021/07/01 02:02:06;;;;;;;1.17;0.70;;;14.30;90.10;;;;;;5054568;28;20041;-77
2021/07/01 02:04:32;;;;;;;1.15;1.00;;;14.40;90.10;;;;;;5053681;28;20463;-77
2021/07/01 02:06:57;;;;;;;1.25;0.80;;;14.40;90.10;;;;;;5054052;28;20044;-77
2021/07/01 02:09:23;;;;;;;0.70;0.70;;;14.40;90.10;;;;;;5037625;28;20120;-77
2021/07/01 02:11:49;;;;;;;2.22;1.10;;;14.40;90.10;;;;;;5054689;28;20513;-77
2021/07/01 02:14:16;;;;;;;1.15;0.90;;;14.40;90.20;;;;;;5054242;28;20036;-78
2021/07/01 02:16:42;;;;;;;0.95;0.82;;;14.30;90.00;;;;;;5021112;28;20045;-77
2021/07/01 02:19:07;;;;;;;2.70;1.00;;;14.30;90.30;;;;;;5037372;28;20075;-77
2021/07/01 02:21:33;;;;;;;1.10;0.88;;;14.30;90.10;;;;;;5053995;28;20040;-78
2021/07/01 02:23:59;;;;;;;1.05;0.95;;;14.30;90.10;;;;;;5037338;28;20044;-78
2021/07/01 02:26:24;;;;;;;1.40;0.90;;;14.30;90.10;;;;;;5072065;28;20047;-78
2021/07/01 02:28:50;;;;;;;1.95;0.90;;;14.20;90.10;;;;;;5071776;28;20047;-78
2021/07/01 02:31:15;;;;;;;2.08;0.82;;;14.30;90.10;;;;;;5054113;28;20052;-78
2021/07/01 02:33:41;;;;;;;2.35;0.90;;;14.20;90.10;;;;;;5054043;28;20050;-77
2021/07/01 02:36:07;;;;;;;1.15;0.93;;;14.20;90.10;;;;;;5053925;28;20051;-77
2021/07/01 02:38:33;;;;;;;1.85;1.00;;;14.20;90.10;;;;;;5020756;28;20136;-77
2021/07/01 02:40:59;;;;;;;1.60;1.00;;;14.20;90.10;;;;;;5037824;28;20041;-77
2021/07/01 02:43:24;;;;;;;1.58;0.88;;;14.20;90.10;;;;;;5037521;28;20040;-77
2021/07/01 02:45:50;;;;;;;1.60;0.80;;;14.20;90.10;;;;;;5053781;28;20533;-77
2021/07/01 02:48:16;;;;;;;1.70;0.90;;;14.20;90.10;;;;;;5053751;28;20044;-78
2021/07/01 02:50:42;;;;;;;1.15;0.80;;;14.20;90.20;;;;;;5053720;28;20041;-77
2021/07/01 02:53:07;;;;;;;1.13;0.90;;;14.10;90.20;;;;;;5053960;28;20063;-77
2021/07/01 02:55:34;;;;;;;2.03;0.80;;;14.10;90.20;;;;;;5053570;28;20056;-77
2021/07/01 02:58:00;;;;;;;1.67;0.93;;;14.10;90.20;;;;;;5053676;28;20045;-78
2021/07/01 03:00:26;;;;;;;1.15;0.80;;;14.10;90.20;;;;;;5053612;28;20090;-78
2021/07/01 03:02:51;;;;;;;0.88;0.70;;;14.10;90.20;;;;;;5071410;28;20040;-78
2021/07/01 03:05:17;;;;;;;1.90;0.70;;;14.10;90.20;;;;;;5053361;28;20082;-78
2021/07/01 03:07:43;;;;;;;2.55;0.90;;;14.10;90.20;;;;;;5053466;28;20619;-78
2021/07/01 03:10:09;;;;;;;1.92;1.10;;;14.10;90.20;;;;;;5053418;28;20107;-78
2021/07/01 03:12:34;;;;;;;2.67;0.80;;;14.00;90.20;;;;;;5071369;28;20410;-77
2021/07/01 03:15:00;;;;;;;1.83;0.90;;;14.00;90.20;;;;;;5053509;28;20044;-77
2021/07/01 03:17:25;;;;;;;1.63;1.00;;;14.00;90.30;;;;;;5073246;28;20048;-77
2021/07/01 03:19:51;;;;;;;1.23;0.90;;;14.00;90.20;;;;;;5075022;28;20559;-77
2021/07/01 03:22:16;;;;;;;1.70;0.95;;;14.10;90.30;;;;;;5056781;28;20059;-76
2021/07/01 03:24:42;;;;;;;1.88;0.90;;;14.10;90.30;;;;;;5056847;28;20051;-77
2021/07/01 03:27:08;;;;;;;1.80;0.80;;;14.10;90.20;;;;;;5074638;28;20082;-78
2021/07/01 03:29:34;;;;;;;1.52;1.00;;;14.00;90.50;;;;;;5074552;28;20040;-77
2021/07/01 03:31:59;;;;;;;0.57;0.57;;;14.00;90.20;;;;;;5056852;28;20036;-77
2021/07/01 03:34:25;;;;;;;1.48;0.80;;;14.00;90.20;;;;;;5074362;28;20394;-77
2021/07/01 03:36:50;;;;;;;1.08;0.80;;;14.00;90.30;;;;;;5056611;28;20037;-77
2021/07/01 03:39:16;;;;;;;0.73;0.68;;;14.00;90.30;;;;;;5056956;28;20079;-77
2021/07/01 03:41:42;;;;;;;1.63;0.90;;;14.00;90.30;;;;;;5056682;28;20036;-77
2021/07/01 03:44:09;;;;;;;1.80;0.80;;;14.00;90.30;;;;;;5074108;28;20048;-77
2021/07/01 03:46:37;;;;;;;1.45;0.88;;;14.10;90.30;;;;;;5057113;28;20045;-77
2021/07/01 03:49:03;;;;;;;2.05;0.90;;;14.00;90.30;;;;;;5074324;28;20459;-77
2021/07/01 03:51:29;;;;;;;2.13;0.75;;;14.00;90.30;;;;;;5039888;28;20103;-77
2021/07/01 03:53:54;;;;;;;2.03;0.70;;;14.10;90.30;;;;;;5056521;28;20139;-77
2021/07/01 03:56:20;;;;;;;1.48;0.80;;;14.00;90.30;;;;;;5056374;28;20048;-78
2021/07/01 03:58:46;;;;;;;2.00;0.90;;;14.10;90.30;;;;;;5039632;28;20048;-77
2021/07/01 04:01:11;;;;;;;0.88;0.70;;;14.10;90.30;;;;;;5074208;28;20111;-77
2021/07/01 04:03:37;;;;;;;1.65;0.82;;;14.10;90.30;;;;;;5074690;28;20383;-77
2021/07/01 04:06:03;;;;;;;1.10;0.68;;;14.10;90.30;;;;;;5056259;28;20064;-77
2021/07/01 04:08:29;;;;;;;1.45;0.75;;;14.10;90.30;;;;;;5040054;28;20044;-77
2021/07/01 04:10:55;;;;;;;2.05;1.00;;;14.10;90.30;;;;;;5056411;28;20044;-78
2021/07/01 04:13:21;;;;;;;2.08;0.98;;;14.10;90.20;;;;;;5056271;28;20037;-78
2021/07/01 04:15:46;;;;;;;1.45;0.80;;;14.10;90.30;;;;;;5074461;28;20375;-77
2021/07/01 04:18:14;;;;;;;2.25;1.00;;;14.10;90.30;;;;;;5056408;28;20041;-77
2021/07/01 04:20:40;;;;;;;2.50;1.10;;;14.10;90.30;;;;;;5055993;28;20131;-77
2021/07/01 04:23:07;;;;;;;1.65;0.93;;;14.10;90.30;;;;;;5056019;28;20478;-78
2021/07/01 04:25:33;;;;;;;2.42;1.08;;;14.10;90.30;;;;;;5073968;28;20036;-77
2021/07/01 04:27:59;;;;;;;1.88;1.10;;;14.10;90.30;;;;;;5055580;28;20111;-77
2021/07/01 04:30:25;;;;;;;1.55;0.80;;;14.10;90.30;;;;;;5022954;28;20464;-78
2021/07/01 04:32:50;;;;;;;2.10;1.05;;;14.00;90.30;;;;;;5039308;28;20040;-78
2021/07/01 04:35:16;;;;;;;1.17;0.95;;;14.10;90.30;;;;;;5073598;28;20106;-77
2021/07/01 04:37:42;;;;;;;1.75;1.08;;;14.00;90.30;;;;;;5055797;28;20075;-77
2021/07/01 04:40:09;;;;;;;1.40;0.93;;;13.90;90.60;;;;;;5039169;28;20044;-77
2021/07/01 04:42:36;;;;;;;1.42;0.85;;;14.00;90.40;;;;;;5056658;28;20047;-78
2021/07/01 04:45:04;;;;;;;1.42;1.00;;;14.00;90.40;;;;;;5055561;28;20051;-77
2021/07/01 04:47:30;;;;;;;1.83;1.00;;;14.00;90.30;;;;;;5055666;28;20037;-77
2021/07/01 04:49:55;;;;;;;1.92;1.00;;;14.00;90.40;;;;;;5073940;28;20043;-78
2021/07/01 04:52:21;;;;;;;1.77;0.90;;;13.80;90.30;;;;;;5073988;28;20113;-77
2021/07/01 04:54:46;;;;;;;1.42;0.75;;;13.90;90.40;;;;;;5038972;28;20415;-78
2021/07/01 04:57:12;;;;;;;2.00;0.85;;;13.90;90.40;;;;;;5038646;28;20047;-77
2021/07/01 04:59:37;;;;;;;1.08;0.98;;;13.90;90.40;;;;;;5055722;28;20516;-77
2021/07/01 05:02:03;;;;;;;1.00;0.90;;;13.90;90.40;;;;;;5038719;28;20506;-77
2021/07/01 05:04:29;;;;;;;0.80;0.80;;;13.90;90.40;;;;;;5073606;28;20048;-78
2021/07/01 05:06:54;;;;;;;0.95;0.90;;;13.80;90.40;;;;;;5073349;28;20042;-77
2021/07/01 05:09:20;;;;;;;1.40;1.00;;;13.80;90.40;;;;;;5038656;28;20078;-77
2021/07/01 05:11:45;;;;;;;1.75;1.00;;;13.80;90.40;;;;;;5055024;28;20033;-78
2021/07/01 05:14:11;;;;;;;1.33;0.90;;;13.80;90.40;;;;;;5073861;28;20430;-78
2021/07/01 05:16:37;;;;;;;1.55;1.20;;;13.80;90.40;;;;;;5073007;28;20071;-77
2021/07/01 05:19:02;;;;;;;3.53;0.93;;;13.80;90.40;;;;;;5038478;28;20060;-77
2021/07/01 05:21:29;;;;;;;2.75;1.05;;;13.70;90.40;;;;;;5055081;28;20047;-79
2021/07/01 05:23:54;;;;;;;3.10;1.13;;;13.80;90.40;;;;;;5057755;28;20115;-78
2021/07/01 05:26:20;;;;;;;1.30;1.00;;;13.80;90.40;;;;;;5041240;28;20083;-78
2021/07/01 05:28:46;;;;;;;2.80;1.33;;;13.80;90.40;;;;;;5023551;28;20097;-78
2021/07/01 05:31:12;;;;;;;1.90;0.70;;;13.80;90.40;;;;;;5076443;28;20044;-78
2021/07/01 05:33:38;;;;;;;1.55;1.05;;;13.80;90.40;;;;;;5055995;28;20049;-79
2021/07/01 05:36:05;;;;;;;1.25;0.90;;;13.80;90.40;;;;;;5056742;28;20074;-79
2021/07/01 05:38:31;;;;;;;2.08;1.20;;;13.80;90.40;;;;;;5074707;28;20513;-79
2021/07/01 05:40:56;;;;;;;1.95;1.20;;;13.80;90.40;;;;;;5053867;28;20395;-79
2021/07/01 05:43:23;;;;;;;1.75;1.23;;;13.80;90.40;;;;;;5075696;28;20040;-78
2021/07/01 05:45:49;;;;;;;1.98;1.02;;;13.80;90.40;;;;;;5073711;28;20036;-79
2021/07/01 05:48:14;;;;;;;1.50;1.00;;;13.80;90.40;;;;;;5055367;28;20036;-78
2021/07/01 05:50:43;;;;;;;1.42;1.10;;;13.90;90.40;;;;;;5022047;28;20048;-78
2021/07/01 05:53:12;;;;;;;1.38;0.90;;;13.90;90.40;;;;;;5054810;28;20047;-78
2021/07/01 05:55:38;;;;;;;0.95;0.77;;;13.90;90.40;;;;;;5056071;28;20048;-78
2021/07/01 05:58:04;;;;;;;1.63;0.98;;;14.00;90.40;;;;;;5072863;28;20371;-78
2021/07/01 06:00:30;;;;;;;1.67;0.93;;;13.80;90.30;;;;;;5073651;28;20039;-77
2021/07/01 06:02:56;;;;;;;1.38;0.90;;;13.90;90.30;;;;;;5056508;28;20040;-77
2021/07/01 06:05:22;;;;;;;1.42;0.90;;;13.90;90.40;;;;;;5073278;28;20482;-78
2021/07/01 06:07:52;;;;;;;1.65;1.10;;;13.90;90.40;;;;;;5073864;28;20042;-78
2021/07/01 06:10:18;;;;;;;1.33;0.90;;;14.00;90.40;;;;;;5052868;28;20485;-78
2021/07/01 06:12:44;;;;;;;1.50;1.00;;;13.90;90.40;;;;;;5037720;28;20051;-78
2021/07/01 06:15:11;;;;;;;1.05;0.88;;;14.00;90.40;;;;;;5054469;28;20075;-79
2021/07/01 06:17:37;;;;;;;1.20;1.10;;;13.90;90.40;;;;;;5055828;28;20044;-79
2021/07/01 06:20:06;;;;;;;2.95;1.10;;;13.90;90.40;;;;;;5072857;28;20036;-78
2021/07/01 06:22:32;;;;;;;1.83;0.90;;;13.90;90.40;;;;;;5054738;28;20076;-78
2021/07/01 06:24:58;;;;;;;0.82;0.80;;;13.90;90.40;;;;;;5037523;28;20397;-78
2021/07/01 06:27:32;;;;;;;2.28;1.02;;;13.90;90.40;;;;;;5054399;28;20048;-78
2021/07/01 06:29:58;;;;;;;1.88;0.90;;;13.90;90.50;;;;;;5038358;28;20064;-77
2021/07/01 06:32:24;;;;;;;1.00;0.90;;;13.90;90.40;;;;;;5054231;28;20063;-78
2021/07/01 06:34:49;;;;;;;0.98;0.90;;;14.00;90.40;;;;;;5054149;28;20502;-77
2021/07/01 06:37:17;;;;;;;2.10;0.90;;;14.00;90.40;;;;;;5072652;28;20120;-79
2021/07/01 06:39:44;;;;;;;1.67;0.90;;;13.90;90.40;;;;;;5072111;28;20538;-79
2021/07/01 06:42:10;;;;;;;1.55;1.23;;;14.00;90.40;;;;;;5038348;28;20041;-79
2021/07/01 06:44:38;;;;;;;1.23;1.00;;;14.10;90.40;;;;;;5037422;28;20490;-80
2021/07/01 06:47:04;;;;;;;1.27;0.90;;;14.10;90.40;;;;;;5037794;28;20037;-81
2021/07/01 06:49:31;;;;;;;2.33;1.00;;;14.10;90.30;;;;;;5071877;28;20504;-81
2021/07/01 06:51:58;;;;;;;0.82;0.75;;;14.20;90.30;;;;;;5040791;28;20044;-82
2021/07/01 06:54:24;;;;;;;2.05;1.20;;;14.10;90.20;;;;;;5041675;28;20557;-82
2021/07/01 06:56:52;;;;;;;1.50;1.20;;;14.20;90.30;;;;;;5039068;28;20024;-81
2021/07/01 06:59:20;;;;;;;1.60;0.80;;;14.30;90.30;;;;;;5057588;28;20060;-82
2021/07/01 07:01:47;;;;;;;2.25;1.00;;;14.30;90.30;;;;;;5041371;28;20086;-81
2021/07/01 07:04:14;;;;;;;0.98;0.93;;;14.30;90.30;;;;;;5040457;28;20056;-82
2021/07/01 07:06:41;;;;;;;0.90;0.88;;;14.30;90.30;;;;;;5040953;28;20040;-81
2021/07/01 07:09:07;;;;;;;1.00;0.90;;;14.30;90.30;;;;;;5040648;28;20108;-81
2021/07/01 07:11:35;;;;;;;1.02;0.88;;;14.30;90.30;;;;;;5040642;28;20052;-78
2021/07/01 07:14:01;;;;;;;2.42;1.13;;;14.30;90.60;;;;;;5057792;28;20079;-79
2021/07/01 07:16:29;;;;;;;2.35;1.20;;;14.30;90.30;;;;;;5058260;28;20036;-80
2021/07/01 07:18:56;;;;;;;1.23;1.00;;;14.30;90.30;;;;;;5037096;28;20048;-80
2021/07/01 07:21:22;;;;;;;1.20;0.90;;;14.30;90.30;;;;;;5073937;28;20069;-80
2021/07/01 07:23:53;;;;;;;1.58;1.20;;;14.40;90.30;;;;;;5041941;28;20044;-81
2021/07/01 07:26:22;;;;;;;1.65;1.00;;;14.40;90.30;;;;;;5040802;28;20070;-81
2021/07/01 07:28:50;;;;;;;2.53;1.10;;;14.40;90.30;;;;;;5057793;28;20044;-81
2021/07/01 07:31:24;;;;;;;1.55;0.90;;;14.50;90.30;;;;;;5059540;28;20068;-80
2021/07/01 07:33:53;;;;;;;1.58;0.98;;;14.50;90.30;;;;;;5058155;28;20036;-79
2021/07/01 07:36:21;;;;;;;1.83;1.20;;;14.40;90.20;;;;;;5040289;28;20037;-79
2021/07/01 07:38:49;;;;;;;2.67;1.10;;;14.60;90.30;;;;;;5056625;28;20891;-81
2021/07/01 07:41:15;;;;;;;1.33;0.90;;;14.50;90.20;;;;;;5040002;28;20036;-81
2021/07/01 07:43:41;;;;;;;1.73;1.08;;;14.60;90.20;;;;;;5056730;28;20383;-80
2021/07/01 07:46:07;;;;;;;2.10;1.13;;;14.60;90.20;;;;;;5076379;28;20056;-80
2021/07/01 07:48:33;;;;;;;1.80;1.00;;;14.50;90.20;;;;;;5040947;28;20165;-80
2021/07/01 07:51:01;;;;;;;2.15;1.15;;;14.50;90.20;;;;;;5041484;28;20076;-80
2021/07/01 07:53:31;;;;;;;1.90;1.15;;;14.60;90.20;;;;;;5058521;28;20064;-80
2021/07/01 07:56:04;;;;;;;1.10;1.00;;;14.60;90.30;;;;;;5055267;28;20041;-80
2021/07/01 07:58:31;;;;;;;2.53;1.40;;;14.60;90.30;;;;;;5040559;28;20049;-80
2021/07/01 08:01:00;;;;;;;1.33;1.00;;;14.60;90.30;;;;;;5040675;28;20040;-80
2021/07/01 08:03:26;;;;;;;2.10;1.10;;;14.70;90.30;;;;;;5076624;28;20039;-80
2021/07/01 08:05:55;;;;;;;1.85;1.10;;;14.70;90.30;;;;;;5056388;28;20045;-82
2021/07/01 08:08:22;;;;;;;1.10;0.80;;;14.60;90.30;;;;;;5041789;28;20060;-80
2021/07/01 08:10:50;;;;;;;1.65;1.02;;;14.70;90.30;;;;;;5076125;28;20103;-80
2021/07/01 08:13:21;;;;;;;1.77;1.08;;;14.70;90.30;;;;;;5059688;28;20509;-81
2021/07/01 08:15:47;;;;;;;2.78;1.10;;;14.70;90.30;;;;;;5041570;28;20055;-79
2021/07/01 08:18:32;;;;;;;1.83;1.08;;;14.70;90.30;;;;;;5039475;28;20044;-79
2021/07/01 08:20:59;;;;;;;1.73;1.20;;;14.70;90.30;;;;;;5056060;28;20115;-78
2021/07/01 08:23:25;;;;;;;2.53;1.10;;;14.70;90.30;;;;;;5022873;28;20032;-77
2021/07/01 08:25:53;;;;;;;1.80;1.30;;;14.70;90.30;;;;;;5039995;28;20052;-79
2021/07/01 08:28:20;;;;;;;1.15;1.00;;;14.80;90.30;;;;;;5074313;28;20097;-78
2021/07/01 08:30:47;;;;;;;1.00;0.77;;;14.90;90.30;;;;;;5056655;28;20048;-78
2021/07/01 08:33:15;;;;;;;1.20;1.00;;;14.80;90.30;;;;;;5056725;28;20379;-77
2021/07/01 08:35:40;;;;;;;2.17;1.30;;;14.80;90.30;;;;;;5074227;28;20547;-78
2021/07/01 08:38:08;;;;;;;2.30;0.98;;;14.80;90.20;;;;;;5039033;28;20091;-81
2021/07/01 08:40:36;;;;;;;1.35;0.98;;;14.90;90.30;;;;;;5074164;28;20037;-80
2021/07/01 08:43:03;;;;;;;1.65;0.95;;;15.00;90.30;;;;;;5055683;28;20051;-80
2021/07/01 08:45:50;;;;;;;3.53;1.30;;;14.90;90.20;;;;;;5023017;28;20482;-80
2021/07/01 08:48:21;;;;;;;1.98;1.02;;;15.00;90.30;;;;;;5053993;28;20044;-80
2021/07/01 08:50:54;;;;;;;2.50;1.08;;;14.90;90.20;;;;;;5054362;28;20087;-80
2021/07/01 08:53:46;;;;;;;1.77;1.10;;;14.90;90.20;;;;;;5073698;28;20036;-79
2021/07/01 08:56:16;;;;;;;1.80;1.00;;;15.00;90.30;;;;;;5055760;28;20040;-79
2021/07/01 08:58:47;;;;;;;1.30;0.88;;;15.00;90.20;;;;;;5038751;28;20051;-78
2021/07/01 09:01:13;;;;;;;1.08;0.90;;;15.00;90.30;;;;;;5055669;28;20439;-80
2021/07/01 09:03:43;;;;;;;1.95;1.10;;;14.90;90.50;;;;;;5036970;28;20502;-79
2021/07/01 09:06:16;;;;;;;1.33;0.85;;;15.00;90.30;;;;;;5038851;28;20041;-79
2021/07/01 09:08:44;;;;;;;2.10;1.17;;;15.00;90.30;;;;;;5073474;28;20048;-79
2021/07/01 09:11:12;;;;;;;1.63;1.10;;;14.90;90.30;;;;;;5073525;28;20550;-80
2021/07/01 09:13:43;;;;;;;1.50;1.00;;;15.00;90.30;;;;;;5054568;28;20047;-79
2021/07/01 09:16:10;;;;;;;1.17;0.90;;;15.00;90.30;;;;;;5022614;28;20046;-78
2021/07/01 09:18:40;;;;;;;2.53;1.30;;;15.00;90.30;;;;;;5038592;28;20441;-78
2021/07/01 09:21:06;;;;;;;2.35;1.20;;;15.00;90.30;;;;;;5054118;28;20047;-79
2021/07/01 09:23:32;;;;;;;2.25;1.10;;;15.10;90.30;;;;;;5055532;28;20028;-79
2021/07/01 09:26:01;;;;;;;3.53;1.50;;;15.00;90.30;;;;;;5022065;28;20529;-80
2021/07/01 09:28:26;;;;;;;2.35;1.35;;;15.10;90.30;;;;;;5073052;28;20048;-79
2021/07/01 09:30:54;;;;;;;2.55;1.38;;;15.00;90.20;;;;;;5073072;28;20052;-82
2021/07/01 09:33:20;;;;;;;2.75;1.42;;;15.10;90.20;;;;;;5039079;28;20102;-81
2021/07/01 09:35:46;;;;;;;2.70;1.13;;;15.10;90.20;;;;;;5055548;28;20048;-82
2021/07/01 09:38:12;;;;;;;2.00;1.30;;;15.10;90.20;;;;;;5038693;28;20094;-80
2021/07/01 09:40:38;;;;;;;4.00;1.80;;;15.10;90.20;;;;;;5054988;28;20445;-80
2021/07/01 09:43:07;;;;;;;5.80;1.75;;;15.10;90.20;;;;;;5055758;28;20138;-79
2021/07/01 09:45:34;;;;;;;4.50;1.60;;;15.20;90.20;;;;;;5055355;28;20110;-79
2021/07/01 09:48:10;;;;;;;2.03;1.50;;;15.10;90.20;;;;;;5038210;28;20047;-79
2021/07/01 09:50:44;;;;;;;2.30;1.30;;;15.20;90.20;;;;;;5075092;28;20041;-78
2021/07/01 09:53:16;;;;;;;3.72;1.70;;;15.30;90.20;;;;;;5039826;28;20040;-78
2021/07/01 09:55:43;;;;;;;2.58;1.40;;;15.30;90.20;;;;;;5055432;28;20040;-79
2021/07/01 09:58:13;;;;;;;3.17;1.40;;;15.30;90.20;;;;;;5073262;28;20106;-79
2021/07/01 10:00:38;;;;;;;2.40;1.33;;;15.30;90.20;;;;;;5039402;28;20040;-79
2021/07/01 10:03:07;;;;;;;2.42;1.40;;;15.30;90.20;;;;;;5038011;28;20048;-79
2021/07/01 10:05:34;;;;;;;1.70;1.20;;;15.30;90.20;;;;;;5054354;28;20036;-79
2021/07/01 10:08:00;;;;;;;2.30;1.10;;;15.30;90.20;;;;;;5072376;28;20044;-79
2021/07/01 10:10:26;;;;;;;2.00;1.30;;;15.30;90.30;;;;;;5072447;28;20044;-78
2021/07/01 10:12:55;;;;;;;2.38;1.20;;;15.30;90.30;;;;;;5037932;28;20048;-80
2021/07/01 10:15:36;;;;;;;2.85;1.27;;;15.30;90.30;;;;;;5037681;28;20044;-81
2021/07/01 10:18:12;;;;;;;2.10;1.38;;;15.20;90.30;;;;;;5037838;28;20398;-79
2021/07/01 10:20:41;;;;;;;2.58;1.40;;;15.20;90.30;;;;;;5038064;28;20063;-78
2021/07/01 10:23:22;;;;;;;2.03;1.23;;;15.30;90.30;;;;;;5054490;28;20399;-79
2021/07/01 10:25:52;;;;;;;2.20;1.30;;;15.30;90.30;;;;;;5070982;28;20490;-78
2021/07/01 10:28:20;;;;;;;2.47;1.50;;;15.30;90.30;;;;;;5054318;28;20066;-79
2021/07/01 10:31:12;;;;;;;2.20;1.35;;;15.30;90.30;;;;;;5037839;28;20102;-78
2021/07/01 10:33:42;;;;;;;2.85;1.60;;;15.30;90.30;;;;;;5072492;28;20132;-79
2021/07/01 10:36:21;;;;;;;2.03;1.20;;;15.30;90.30;;;;;;5071809;28;20123;-79
2021/07/01 10:38:50;;;;;;;2.33;1.35;;;15.30;90.30;;;;;;5053798;28;20033;-79
2021/07/01 10:41:32;;;;;;;3.50;1.40;;;15.40;90.30;;;;;;5053857;28;20047;-80
2021/07/01 10:43:59;;;;;;;1.75;1.05;;;15.40;90.30;;;;;;5070707;28;20068;-79
2021/07/01 10:46:44;;;;;;;2.60;1.30;;;15.40;90.30;;;;;;5072003;28;20093;-79
2021/07/01 10:49:11;;;;;;;1.80;1.35;;;15.40;90.30;;;;;;5072257;28;20047;-78
2021/07/01 10:51:51;;;;;;;1.88;1.35;;;15.50;90.30;;;;;;5036967;28;20509;-79
2021/07/01 10:54:17;;;;;;;2.58;1.40;;;15.40;90.30;;;;;;5071839;28;20052;-79
2021/07/01 10:56:44;;;;;;;3.38;1.60;;;15.40;90.30;;;;;;5053626;28;20059;-79
2021/07/01 10:59:11;;;;;;;3.70;1.52;;;15.40;90.30;;;;;;5035245;28;20131;-79
2021/07/01 11:01:41;;;;;;;1.92;1.20;;;15.50;90.30;;;;;;5037447;28;20049;-79
2021/07/01 11:04:13;;;;;;;2.57;1.50;;;15.40;90.30;;;;;;5054004;28;20121;-79
2021/07/01 11:06:41;;;;;;;;;;;15.40;90.30;;;;;;5038177;28;20135;-79
2021/07/01 11:09:09;;;;;;;3.15;1.40;;;15.40;90.30;;;;;;5053702;28;20358;-79
2021/07/01 11:11:38;;;;;;;1.77;1.23;;;15.40;90.30;;;;;;5070825;28;20394;-79
2021/07/01 11:14:08;;;;;;;4.03;1.70;;;15.50;90.30;;;;;;5053434;28;20418;-79
2021/07/01 11:16:38;;;;;;;2.70;1.40;;;15.50;90.30;;;;;;5020880;28;20458;-78
2021/07/01 11:19:05;;;;;;;2.75;1.60;;;15.50;90.30;;;;;;5069984;28;20132;-79
2021/07/01 11:21:31;;;;;;;2.15;1.40;;;15.50;90.30;;;;;;5037460;28;20040;-79
2021/07/01 11:24:11;;;;;;;3.20;1.63;;;15.50;90.30;;;;;;5037001;28;20045;-78
2021/07/01 11:26:38;;;;;;;2.05;1.23;;;15.50;90.30;;;;;;5053590;28;20497;-78
2021/07/01 11:29:08;;;;;;;2.63;1.50;;;15.60;90.30;;;;;;5020455;28;20090;-79
2021/07/01 11:31:49;;;;;;;2.67;1.47;;;15.60;90.30;;;;;;5036481;28;20105;-78
2021/07/01 11:34:18;;;;;;;2.60;1.60;;;15.50;90.30;;;;;;5036656;28;20040;-78
2021/07/01 11:36:50;;;;;;;4.18;1.42;;;15.60;90.30;;;;;;5053325;28;20479;-78
2021/07/01 11:39:22;;;;;;;2.15;1.30;;;15.70;90.30;;;;;;5040393;28;20048;-78
2021/07/01 11:41:48;;;;;;;2.72;1.60;;;15.50;90.30;;;;;;5036992;28;20060;-79
2021/07/01 11:44:13;;;;;;;3.03;1.30;;;15.60;90.40;;;;;;5056461;28;20068;-79
2021/07/01 11:46:41;;;;;;;3.17;1.73;;;15.60;90.30;;;;;;5040067;28;20041;-78
2021/07/01 11:49:08;;;;;;;2.67;1.60;;;15.70;90.30;;;;;;5040031;28;20402;-79
2021/07/01 11:51:34;;;;;;;4.28;1.67;;;15.60;90.30;;;;;;5056988;28;20051;-78
2021/07/01 11:54:00;;;;;;;2.33;1.48;;;15.70;90.30;;;;;;5057244;28;20056;-78
2021/07/01 11:56:26;;;;;;;2.63;1.40;;;15.60;90.30;;;;;;5074762;28;20504;-79
2021/07/01 11:58:52;;;;;;;4.20;1.63;;;15.90;90.30;;;;;;5072862;28;20045;-79
2021/07/01 12:01:19;;;;;;;2.83;1.48;;;15.80;90.20;;;;;;5056429;28;20402;-79
2021/07/01 12:03:48;;;;;;;2.80;1.77;;;15.80;90.20;;;;;;5039597;28;20040;-79
2021/07/01 12:06:34;;;;;;;3.55;1.52;;;15.90;90.20;;;;;;5041228;28;20094;-78
2021/07/01 12:09:00;;;;;;;3.28;1.50;;;16.00;90.20;;;;;;5073684;28;20109;-79
2021/07/01 12:11:26;;;;;;;1.92;1.40;;;16.00;90.10;;;;;;5039985;28;20048;-79
2021/07/01 12:13:51;;;;;;;2.55;1.58;;;16.00;90.10;;;;;;5056184;28;20059;-80
2021/07/01 12:16:18;;;;;;;2.28;1.23;;;16.10;90.10;;;;;;5041064;28;20486;-83
2021/07/01 12:19:01;;;;;;;2.20;1.52;;;16.20;90.10;;;;;;5040687;28;20044;-83
2021/07/01 12:21:30;;;;;;;2.05;1.20;;;16.30;90.10;;;;;;5038260;28;20037;-83
2021/07/01 12:24:03;;;;;;;2.58;1.38;;;16.30;90.00;;;;;;5074549;28;20119;-83
2021/07/01 12:26:40;;;;;;;4.15;1.55;;;16.50;90.00;;;;;;5056475;28;20032;-83
2021/07/01 12:29:16;;;;;;;3.17;1.23;;;16.50;89.90;;;;;;5042519;28;20041;-84
2021/07/01 12:31:42;;;;;;;2.35;1.27;;;16.60;89.70;;;;;;5057650;28;20048;-84
2021/07/01 12:34:12;;;;;;;2.95;1.10;;;16.50;89.60;;;;;;5025489;28;20047;-83
2021/07/01 12:37:04;;;;;;;1.83;1.20;;;16.50;89.60;;;;;;5041811;28;20051;-86
2021/07/01 12:39:38;;;;;;;3.03;1.15;;;16.60;89.70;;;;;;5041486;28;20056;-84
2021/07/01 12:42:21;;;;;;;3.03;1.60;;;16.70;89.70;;;;;;5076472;28;20036;-80
2021/07/01 12:44:47;;;;;;;3.15;1.27;;;16.70;89.50;;;;;;5059367;28;20099;-79
2021/07/01 12:47:27;;;;;;;3.08;1.40;;;16.70;89.50;;;;;;5055668;28;20060;-80
2021/07/01 12:49:57;;;;;;;4.40;1.50;;;16.80;89.40;;;;;;5053469;28;20089;-81